Time;durP1;ratioP1;P1;durP2;ratioP2;P2;SDS_P1;SDS_P2;PMS_P1;PMS_P2;Temp;Humidity;BMP_temperature;BMP_pressure;BME280_temperature;BME280_humidity;BME280_pressure;Samples;Min_cycle;Max_cycle;Signal;HPM_P1;HPM_P2
2023/10/16 00:03:01;;;;;;;8.75;2.22;;;;;;;5.84;100.00;102129.91;10398705;28;20041;-75
2023/10/16 00:08:11;;;;;;;4.18;1.30;;;;;;;5.86;100.00;102114.19;10395884;28;20065;-75
2023/10/16 00:13:11;;;;;;;3.42;0.77;;;;;;;5.82;100.00;102099.19;10384117;28;20099;-75
2023/10/16 00:18:22;;;;;;;8.82;1.40;;;;;;;5.90;100.00;102116.53;10396467;28;20042;-75
2023/10/16 00:23:25;;;;;;;3.33;1.00;;;;;;;5.83;100.00;102122.78;10394978;28;20068;-75
2023/10/16 00:28:26;;;;;;;5.80;0.93;;;;;;;5.80;100.00;102123.16;10396513;28;20045;-74
2023/10/16 00:33:27;;;;;;;4.47;1.00;;;;;;;5.83;100.00;102130.13;10395392;28;20049;-75
2023/10/16 00:38:35;;;;;;;7.63;1.58;;;;;;;5.95;100.00;102131.34;10390178;28;20240;-75
2023/10/16 00:43:36;;;;;;;3.35;1.10;;;;;;;6.07;100.00;102131.69;10394304;28;20042;-75
2023/10/16 00:48:37;;;;;;;3.28;1.10;;;;;;;6.15;100.00;102137.03;10394920;28;20045;-76
2023/10/16 00:53:38;;;;;;;5.40;0.85;;;;;;;6.20;100.00;102122.78;10393930;28;20045;-75
2023/10/16 00:58:39;;;;;;;2.47;0.70;;;;;;;6.07;100.00;102096.97;10394498;28;20049;-75
2023/10/16 01:03:42;;;;;;;6.35;0.70;;;;;;;6.12;100.00;102115.56;10395151;28;20103;-76
2023/10/16 01:08:46;;;;;;;6.97;0.77;;;;;;;6.10;100.00;102128.56;10369368;28;20038;-74
2023/10/16 01:13:51;;;;;;;2.83;0.90;;;;;;;6.01;100.00;102103.22;10378725;28;20044;-75
2023/10/16 01:18:51;;;;;;;2.72;0.82;;;;;;;6.12;100.00;102110.09;10393766;28;20038;-76
2023/10/16 01:23:52;;;;;;;2.92;0.63;;;;;;;6.14;100.00;102104.41;10397541;28;20033;-75
2023/10/16 01:28:54;;;;;;;1.95;0.60;;;;;;;6.13;100.00;102106.31;10391782;28;20092;-74
2023/10/16 01:33:55;;;;;;;3.88;0.98;;;;;;;6.13;100.00;102114.50;10398305;28;20477;-75
2023/10/16 01:38:58;;;;;;;6.10;1.95;;;;;;;6.16;100.00;102105.06;10391296;28;20402;-74
2023/10/16 01:44:03;;;;;;;3.45;0.65;;;;;;;6.20;100.00;102099.03;10370572;28;20042;-75
2023/10/16 01:49:05;;;;;;;3.05;0.70;;;;;;;6.24;100.00;102108.53;10380521;28;20069;-75
2023/10/16 01:54:11;;;;;;;4.30;0.75;;;;;;;6.25;100.00;102110.22;10398372;28;20034;-75
2023/10/16 01:59:11;;;;;;;1.65;0.70;;;;;;;6.31;100.00;102102.28;10391257;28;20042;-75
2023/10/16 02:04:12;;;;;;;3.83;1.00;;;;;;;6.39;100.00;102124.03;10396246;28;20509;-75
2023/10/16 02:09:13;;;;;;;3.10;0.65;;;;;;;6.42;100.00;102108.03;10394211;28;20045;-74
2023/10/16 02:14:13;;;;;;;5.80;0.63;;;;;;;6.41;100.00;102103.63;10400545;28;20485;-74
2023/10/16 02:19:16;;;;;;;4.35;0.90;;;;;;;6.39;100.00;102102.97;10401364;28;20037;-75
2023/10/16 02:24:16;;;;;;;4.75;0.80;;;;;;;6.30;100.00;102093.19;10400497;28;20052;-75
2023/10/16 02:29:17;;;;;;;3.70;0.73;;;;;;;6.18;100.00;102098.38;10400930;28;20045;-75
2023/10/16 02:34:23;;;;;;;5.30;1.10;;;;;;;6.06;100.00;102097.19;10398460;28;20045;-75
2023/10/16 02:39:35;;;;;;;7.28;1.98;;;;;;;6.00;100.00;102101.53;10400524;28;20038;-76
2023/10/16 02:44:38;;;;;;;3.53;0.80;;;;;;;6.06;100.00;102100.78;10400706;28;20041;-76
2023/10/16 02:49:47;;;;;;;4.82;1.13;;;;;;;6.13;100.00;102105.47;10399891;28;20069;-75
2023/10/16 02:54:47;;;;;;;2.00;0.88;;;;;;;6.17;100.00;102107.59;10379442;28;20045;-75
2023/10/16 02:59:48;;;;;;;5.85;0.98;;;;;;;6.20;100.00;102107.22;10397640;28;20034;-74
2023/10/16 03:04:54;;;;;;;2.45;0.80;;;;;;;6.08;100.00;102095.13;10388973;28;20034;-75
2023/10/16 03:09:55;;;;;;;3.13;0.88;;;;;;;5.93;100.00;102088.81;10397983;28;20048;-75
2023/10/16 03:15:00;;;;;;;1.20;0.50;;;;;;;5.80;100.00;102098.53;10397714;28;20398;-74
2023/10/16 03:20:07;;;;;;;2.10;0.70;;;;;;;5.71;100.00;102096.16;10396496;28;20041;-75
2023/10/16 03:25:24;;;;;;;5.82;0.82;;;;;;;5.59;100.00;102107.56;10399319;28;20038;-75
2023/10/16 03:30:27;;;;;;;3.03;1.05;;;;;;;5.57;100.00;102106.06;10385785;28;20101;-74
2023/10/16 03:35:29;;;;;;;1.30;0.57;;;;;;;5.61;100.00;102115.56;10390761;28;20038;-75
2023/10/16 03:40:30;;;;;;;2.80;0.80;;;;;;;5.74;100.00;102112.97;10397681;28;20047;-75
2023/10/16 03:45:31;;;;;;;5.78;1.20;;;;;;;5.86;100.00;102116.91;10397847;28;20060;-74
2023/10/16 03:50:35;;;;;;;3.70;1.20;;;;;;;5.94;100.00;102115.13;10395405;28;20042;-74
2023/10/16 03:55:43;;;;;;;4.68;1.08;;;;;;;6.00;100.00;102122.56;10397825;28;20080;-74
2023/10/16 04:00:50;;;;;;;5.65;1.77;;;;;;;5.93;100.00;102113.41;10396750;28;20101;-74
2023/10/16 04:05:51;;;;;;;1.83;0.85;;;;;;;5.89;100.00;102103.91;10387873;28;20045;-75
2023/10/16 04:10:53;;;;;;;3.08;0.90;;;;;;;5.85;100.00;102104.31;10394649;28;20048;-75
2023/10/16 04:16:08;;;;;;;2.47;1.02;;;;;;;5.82;100.00;102098.38;10395434;28;20587;-74
2023/10/16 04:31:44;;;;;;;6.55;2.20;;;;;;;5.69;100.00;102079.94;10369400;28;20057;-74
2023/10/16 04:36:52;;;;;;;4.57;1.87;;;;;;;5.75;100.00;102092.81;10394074;28;20056;-74
2023/10/16 04:42:49;;;;;;;4.40;2.00;;;;;;;5.85;100.00;102082.44;10390956;28;20061;-74
2023/10/16 04:47:25;;;;;;;5.22;1.33;;;;;;;5.94;100.00;102077.69;10388982;28;20105;-74
2023/10/16 04:57:48;;;;;;;3.63;1.65;;;;;;;6.00;100.00;102063.28;10393858;28;20041;-74
2023/10/16 05:03:21;;;;;;;6.38;2.40;;;;;;;6.00;100.00;102066.00;10380686;28;20389;-74
2023/10/16 05:08:31;;;;;;;3.50;2.58;;;;;;;5.95;100.00;102064.88;10384466;28;20498;-74
2023/10/16 05:13:39;;;;;;;6.40;2.45;;;;;;;5.88;100.00;102058.50;10397893;28;20041;-74
2023/10/16 05:18:43;;;;;;;7.88;2.30;;;;;;;5.93;100.00;102072.41;10393107;28;20061;-74
2023/10/16 06:16:54;;;;;;;7.18;1.50;;;;;;;6.75;100.00;102087.50;10400242;28;20042;-73
2023/10/16 06:21:57;;;;;;;6.68;1.92;;;;;;;6.76;100.00;102078.22;10400881;28;20037;-73
2023/10/16 06:27:08;;;;;;;10.23;1.58;;;;;;;6.87;100.00;102085.91;10378656;28;20100;-74
2023/10/16 06:32:21;;;;;;;5.35;2.08;;;;;;;6.94;100.00;102085.94;10399170;28;20124;-73
2023/10/16 06:37:21;;;;;;;7.97;2.42;;;;;;;6.98;100.00;102085.31;10395652;28;20268;-74
2023/10/16 06:42:22;;;;;;;5.85;2.50;;;;;;;7.02;100.00;102094.81;10400005;28;20048;-72
2023/10/16 06:47:35;;;;;;;5.80;2.33;;;;;;;6.96;100.00;102092.88;10398780;28;20046;-74
2023/10/16 06:52:35;;;;;;;7.97;3.17;;;;;;;7.03;100.00;102112.97;10399491;28;20041;-74
2023/10/16 06:57:35;;;;;;;6.55;3.63;;;;;;;7.16;100.00;102116.84;10396506;28;20057;-73
2023/10/16 07:02:36;;;;;;;8.88;3.65;;;;;;;7.23;100.00;102117.72;10399169;28;20037;-74
2023/10/16 07:07:39;;;;;;;9.48;3.78;;;;;;;7.36;100.00;102112.31;10385976;28;20124;-73
2023/10/16 07:13:26;;;;;;;10.90;3.80;;;;;;;7.43;100.00;102121.41;10393760;28;20045;-73
2023/10/16 07:18:04;;;;;;;8.77;3.92;;;;;;;7.49;100.00;102122.50;10388954;28;20033;-73
2023/10/16 07:23:10;;;;;;;12.07;3.50;;;;;;;7.55;100.00;102129.06;10400344;28;20041;-74
2023/10/16 07:28:11;;;;;;;10.60;3.63;;;;;;;7.65;100.00;102126.78;10397282;28;20044;-74
2023/10/16 07:33:14;;;;;;;9.88;3.03;;;;;;;7.61;100.00;102125.50;10399243;28;20284;-73
2023/10/16 07:38:25;;;;;;;7.10;2.67;;;;;;;7.70;100.00;102118.78;10388741;28;20045;-74
2023/10/16 07:43:28;;;;;;;8.13;2.95;;;;;;;7.79;100.00;102120.31;10394454;28;20042;-74
2023/10/16 07:48:29;;;;;;;8.82;3.28;;;;;;;7.92;100.00;102126.88;10396991;28;20050;-74
2023/10/16 07:53:29;;;;;;;8.90;3.13;;;;;;;8.00;100.00;102123.94;10397069;28;20050;-73
2023/10/16 07:58:47;;;;;;;12.25;3.17;;;;;;;8.01;100.00;102136.63;10397554;28;20064;-74
2023/10/16 08:03:49;;;;;;;7.80;3.03;;;;;;;7.88;100.00;102132.78;10371015;28;20061;-74
2023/10/16 08:08:49;;;;;;;11.50;2.95;;;;;;;7.84;100.00;102136.97;10394097;28;20132;-75
2023/10/16 08:13:52;;;;;;;7.80;2.50;;;;;;;8.00;100.00;102143.13;10377254;28;20409;-76
2023/10/16 08:18:53;;;;;;;8.32;2.38;;;;;;;8.23;100.00;102148.28;10401130;28;20034;-75
2023/10/16 08:23:54;;;;;;;7.13;2.05;;;;;;;8.40;100.00;102124.03;10380220;28;20060;-87
2023/10/16 08:34:20;;;;;;;6.32;1.63;;;;;;;9.13;100.00;102167.16;10379789;28;20561;-89
2023/10/16 08:39:23;;;;;;;9.20;1.48;;;;;;;9.12;100.00;102174.56;10384077;28;20045;-86
2023/10/16 08:44:24;;;;;;;7.22;1.67;;;;;;;9.16;100.00;102178.59;10381098;28;20045;-88
2023/10/16 08:49:25;;;;;;;6.90;1.00;;;;;;;9.36;100.00;102178.53;10390604;28;20497;-84
2023/10/16 08:59:46;;;;;;;5.90;1.35;;;;;;;9.70;100.00;102177.41;10398007;28;20101;-84
2023/10/16 09:04:49;;;;;;;4.25;1.13;;;;;;;9.90;100.00;102174.59;10391194;28;20048;-85
2023/10/16 09:09:53;;;;;;;4.82;0.60;;;;;;;10.09;100.00;102174.72;10366727;28;20532;-87
2023/10/16 09:15:05;;;;;;;2.35;0.70;;;;;;;10.23;100.00;102173.59;10393466;28;20034;-86
2023/10/16 09:20:13;;;;;;;8.85;0.80;;;;;;;10.43;100.00;102164.38;10406029;28;20405;-88
2023/10/16 09:25:15;;;;;;;1.95;0.55;;;;;;;10.63;100.00;102165.09;10400680;28;20109;-86
2023/10/16 09:30:16;;;;;;;2.90;0.57;;;;;;;10.74;100.00;102160.75;10405828;28;20045;-86
2023/10/16 09:35:17;;;;;;;3.83;0.60;;;;;;;10.82;100.00;102170.66;10389764;28;20045;-85
2023/10/16 09:45:37;;;;;;;4.45;0.50;;;;;;;11.00;100.00;102173.47;10404186;28;20046;-80
2023/10/16 09:50:38;;;;;;;2.97;1.13;;;;;;;11.14;100.00;102173.34;10399526;28;20046;-84
2023/10/16 09:55:58;;;;;;;4.32;0.50;;;;;;;11.13;100.00;102174.44;10404401;28;20045;-81
2023/10/16 10:01:06;;;;;;;2.55;0.57;;;;;;;10.95;100.00;102175.22;10375390;28;20084;-82
2023/10/16 10:06:12;;;;;;;4.95;1.77;;;;;;;10.97;100.00;102178.59;10387450;28;20053;-81
2023/10/16 10:11:26;;;;;;;4.47;0.40;;;;;;;11.19;100.00;102176.28;10404380;28;20134;-80
2023/10/16 10:16:29;;;;;;;5.13;0.80;;;;;;;11.20;100.00;102162.25;10397070;28;20038;-78
2023/10/16 10:21:44;;;;;;;4.18;1.50;;;;;;;11.51;100.00;102175.09;10385716;28;20041;-81
2023/10/16 10:26:51;;;;;;;4.53;1.02;;;;;;;11.85;100.00;102160.91;10376554;28;20124;-81
2023/10/16 10:31:51;;;;;;;4.40;0.95;;;;;;;12.26;100.00;102162.94;10383616;28;20034;-80
2023/10/16 10:36:53;;;;;;;6.53;0.80;;;;;;;12.64;100.00;102155.38;10387444;28;20053;-81
2023/10/16 10:41:54;;;;;;;3.33;0.45;;;;;;;12.85;100.00;102151.19;10384901;28;20324;-82
2023/10/16 10:46:54;;;;;;;2.58;0.40;;;;;;;12.88;100.00;102129.47;10380235;28;20124;-82
2023/10/16 10:51:55;;;;;;;3.92;0.52;;;;;;;13.09;100.00;102125.25;10384875;28;20041;-80
2023/10/16 10:56:59;;;;;;;4.50;1.02;;;;;;;12.92;100.00;102132.59;10370050;28;20045;-81
2023/10/16 11:07:39;;;;;;;1.20;0.30;;;;;;;11.55;100.00;102156.16;10351469;28;20061;-85
2023/10/16 11:12:39;;;;;;;2.38;0.85;;;;;;;10.80;100.00;102120.47;10389024;28;20041;-83
2023/10/16 11:17:40;;;;;;;3.30;0.40;;;;;;;10.99;100.00;102163.50;10384985;28;20045;-86
2023/10/16 11:22:43;;;;;;;3.00;0.45;;;;;;;10.97;100.00;102173.91;10390178;28;20046;-86
2023/10/16 11:27:43;;;;;;;1.60;0.55;;;;;;;11.07;100.00;102167.91;10373793;28;20072;-83
2023/10/16 11:32:46;;;;;;;1.67;0.45;;;;;;;11.19;100.00;102165.25;10390288;28;20038;-81
2023/10/16 11:37:52;;;;;;;1.77;0.40;;;;;;;11.45;100.00;102151.19;10392751;28;20038;-86
2023/10/16 11:42:52;;;;;;;7.32;0.50;;;;;;;11.84;100.00;102140.72;10387169;28;20053;-83
2023/10/16 11:53:14;;;;;;;4.65;0.95;;;;;;;12.95;100.00;102123.81;10394969;28;20502;-82
2023/10/16 11:58:14;;;;;;;3.13;0.80;;;;;;;13.33;100.00;102122.50;10381041;28;20044;-85
2023/10/16 12:03:26;;;;;;;2.47;0.57;;;;;;;13.68;100.00;102116.03;10503943;28;20390;-82
2023/10/16 12:08:26;;;;;;;4.80;1.13;;;;;;;13.86;100.00;102115.88;10510652;28;20036;-81
2023/10/16 12:13:30;;;;;;;2.78;0.43;;;;;;;14.00;100.00;102091.50;10500747;28;20040;-77
2023/10/16 12:18:31;;;;;;;5.55;0.75;;;;;;;13.62;100.00;102087.44;10455362;28;20123;-79
2023/10/16 12:23:36;;;;;;;5.53;0.68;;;;;;;13.81;100.00;102098.31;10453730;28;20041;-78
2023/10/16 12:28:37;;;;;;;2.90;0.60;;;;;;;13.99;100.00;102102.81;10493577;28;20037;-80
2023/10/16 12:33:37;;;;;;;5.90;0.63;;;;;;;13.96;100.00;102111.63;10487280;28;20523;-78
2023/10/16 12:38:38;;;;;;;6.15;0.82;;;;;;;14.07;100.00;102096.91;10496002;28;20072;-78
2023/10/16 12:43:38;;;;;;;5.22;0.60;;;;;;;14.22;100.00;102091.66;10495129;28;20052;-79
2023/10/16 12:48:39;;;;;;;1.25;0.43;;;;;;;13.78;100.00;102104.34;10495558;28;20083;-80
2023/10/16 12:53:39;;;;;;;6.57;0.80;;;;;;;13.15;100.00;102106.00;10495992;28;20043;-80
2023/10/16 12:58:39;;;;;;;4.90;0.88;;;;;;;12.62;100.00;102114.16;10493347;28;20049;-79
2023/10/16 13:03:41;;;;;;;5.35;0.98;;;;;;;12.34;100.00;102109.31;10488412;28;20041;-81
2023/10/16 13:08:47;;;;;;;5.75;0.40;;;;;;;12.18;100.00;102108.06;10493122;28;20110;-80
2023/10/16 13:13:47;;;;;;;2.97;0.70;;;;;;;12.26;100.00;102116.00;10472340;28;20047;-79
2023/10/16 13:18:48;;;;;;;2.03;0.50;;;;;;;12.43;100.00;102115.34;10467274;28;20037;-80
2023/10/16 13:23:51;;;;;;;3.03;0.70;;;;;;;12.77;100.00;102099.03;10466723;28;20044;-80
2023/10/16 13:28:51;;;;;;;3.05;0.70;;;;;;;13.11;100.00;102102.91;10460998;28;20037;-80
2023/10/16 13:33:52;;;;;;;3.20;0.45;;;;;;;13.26;100.00;102105.16;10461669;28;20056;-80
2023/10/16 13:38:53;;;;;;;1.05;0.38;;;;;;;13.34;100.00;102098.47;10462079;28;20041;-81
2023/10/16 13:43:55;;;;;;;2.35;0.70;;;;;;;13.59;100.00;102098.16;10465053;28;20075;-75
2023/10/16 13:48:57;;;;;;;2.72;0.57;;;;;;;13.84;100.00;102104.22;10465321;28;20495;-84
2023/10/16 13:53:58;;;;;;;5.72;1.10;;;;;;;13.90;100.00;102089.38;10446584;28;20053;-78
2023/10/16 13:59:00;;;;;;;3.63;0.50;;;;;;;13.88;100.00;102088.78;10461231;28;20045;-81
2023/10/16 14:04:01;;;;;;;1.75;0.50;;;;;;;13.80;100.00;102074.50;10456333;28;20063;-81
2023/10/16 14:09:10;;;;;;;2.03;0.50;;;;;;;13.70;100.00;102087.06;10433046;28;20075;-83
2023/10/16 14:14:11;;;;;;;4.15;0.57;;;;;;;13.48;100.00;102091.56;10451398;28;20120;-85
2023/10/16 14:19:12;;;;;;;4.32;0.60;;;;;;;13.30;100.00;102092.56;10442235;28;20053;-84
2023/10/16 14:24:17;;;;;;;1.73;0.60;;;;;;;13.10;100.00;102104.84;10460961;28;20048;-86
2023/10/16 14:29:20;;;;;;;2.00;0.50;;;;;;;12.74;100.00;102116.13;10463739;28;20044;-88
2023/10/16 14:34:24;;;;;;;7.97;1.50;;;;;;;12.24;100.00;102107.13;10464174;28;20045;-84
2023/10/16 14:39:30;;;;;;;4.95;0.60;;;;;;;11.71;100.00;102124.38;10466392;28;20048;-81
2023/10/16 14:44:31;;;;;;;1.92;0.60;;;;;;;11.28;100.00;102125.28;10423064;28;20041;-85
2023/10/16 14:49:31;;;;;;;2.25;1.25;;;;;;;10.88;100.00;102122.94;10421018;28;20041;-82
2023/10/16 14:54:32;;;;;;;1.27;0.47;;;;;;;10.66;100.00;102112.28;10422234;28;20038;-89
2023/10/16 14:59:33;;;;;;;2.35;0.50;;;;;;;10.21;100.00;102065.63;10420246;28;20087;-87
2023/10/16 15:04:34;;;;;;;4.47;0.60;;;;;;;10.53;100.00;102115.16;10422280;28;20041;-86
2023/10/16 15:09:35;;;;;;;4.20;0.50;;;;;;;10.58;100.00;102114.50;10418566;28;20033;-87
2023/10/16 15:14:35;;;;;;;1.65;0.50;;;;;;;10.60;100.00;102121.44;10419368;28;20057;-80
2023/10/16 15:19:38;;;;;;;4.35;0.70;;;;;;;10.60;100.00;102113.19;10419111;28;20049;-84
2023/10/16 15:24:39;;;;;;;5.10;1.15;;;;;;;10.59;100.00;102116.19;10421706;28;20076;-88
2023/10/16 15:29:40;;;;;;;6.75;1.25;;;;;;;10.51;100.00;102109.03;10421761;28;20072;-84
2023/10/16 15:34:40;;;;;;;1.42;0.70;;;;;;;10.45;100.00;102109.94;10420919;28;20068;-86
2023/10/16 15:39:41;;;;;;;2.95;0.73;;;;;;;10.33;100.00;102106.22;10407214;28;20045;-85
2023/10/16 15:44:41;;;;;;;3.22;0.95;;;;;;;10.21;100.00;102111.53;10417647;28;20034;-87
2023/10/16 15:49:42;;;;;;;3.80;0.60;;;;;;;10.07;100.00;102110.81;10418222;28;20050;-88
2023/10/16 15:54:42;;;;;;;4.57;1.02;;;;;;;9.83;100.00;102106.91;10420549;28;20064;-80
2023/10/16 15:59:43;;;;;;;6.30;2.03;;;;;;;9.67;100.00;102111.84;10420439;28;20049;-85
2023/10/16 16:04:46;;;;;;;4.55;1.88;;;;;;;9.48;100.00;102110.00;10455059;28;20079;-88
2023/10/16 16:09:47;;;;;;;5.07;1.50;;;;;;;9.24;100.00;102103.31;10465683;28;20060;-84
2023/10/16 16:14:49;;;;;;;4.68;1.40;;;;;;;9.03;100.00;102112.66;10476602;28;20052;-88
2023/10/16 16:19:49;;;;;;;4.60;1.55;;;;;;;8.81;100.00;102115.63;10415579;28;20571;-86
2023/10/16 16:24:50;;;;;;;2.60;1.30;;;;;;;8.57;100.00;102114.38;10416731;28;20049;-84
2023/10/16 16:29:50;;;;;;;6.43;1.40;;;;;;;8.46;100.00;102128.72;10411898;28;20147;-77
2023/10/16 16:34:51;;;;;;;1.48;1.30;;;;;;;8.28;100.00;102138.38;10419330;22;20052;-77
2023/10/16 16:39:51;;;;;;;3.17;1.80;;;;;;;8.13;100.00;102140.44;10425541;28;20105;-77
2023/10/16 16:44:52;;;;;;;2.58;1.65;;;;;;;8.05;100.00;102135.16;10413226;28;20040;-77
2023/10/16 16:49:52;;;;;;;8.40;2.20;;;;;;;7.83;100.00;102129.81;10430080;28;20037;-80
2023/10/16 16:54:53;;;;;;;5.57;2.58;;;;;;;7.75;100.00;102140.97;10418658;28;20048;-80
2023/10/16 16:59:54;;;;;;;7.60;2.83;;;;;;;7.68;100.00;102148.31;10448420;28;20044;-78
2023/10/16 17:04:54;;;;;;;5.72;3.05;;;;;;;7.58;100.00;102153.31;10430863;28;20116;-74
2023/10/16 17:09:55;;;;;;;8.52;2.90;;;;;;;7.50;100.00;102158.97;10435132;28;20148;-78
2023/10/16 17:14:55;;;;;;;8.15;2.65;;;;;;;7.44;100.00;102163.34;10438773;28;20072;-75
2023/10/16 17:19:56;;;;;;;7.10;2.78;;;;;;;7.35;100.00;102159.94;10435815;28;20328;-75
2023/10/16 17:24:57;;;;;;;4.72;2.47;;;;;;;7.31;100.00;102166.84;10432602;28;20038;-76
2023/10/16 17:29:57;;;;;;;5.88;2.65;;;;;;;6.49;100.00;102037.00;10435814;28;20052;-75
2023/10/16 17:34:58;;;;;;;5.93;2.70;;;;;;;7.30;100.00;102161.56;10432526;28;20393;-75
2023/10/16 17:39:59;;;;;;;6.75;3.00;;;;;;;7.28;100.00;102165.38;10426331;28;20042;-75
2023/10/16 17:44:59;;;;;;;6.63;2.72;;;;;;;7.31;100.00;102169.59;10417862;28;20061;-75
2023/10/16 17:50:00;;;;;;;8.07;3.55;;;;;;;7.36;100.00;102171.72;10426519;28;20072;-75
2023/10/16 17:55:03;;;;;;;5.90;3.33;;;;;;;7.42;100.00;102176.41;10432283;28;20029;-78
2023/10/16 18:00:07;;;;;;;7.45;3.25;;;;;;;7.46;100.00;102170.34;10421745;28;20045;-75
2023/10/16 18:05:10;;;;;;;9.07;5.38;;;;;;;7.50;100.00;102178.97;10419218;28;20041;-75
2023/10/16 18:10:16;;;;;;;9.85;5.03;;;;;;;7.42;100.00;102165.44;10434287;28;20777;-75
2023/10/16 18:15:18;;;;;;;11.13;5.43;;;;;;;7.50;100.00;102172.66;10440299;28;20088;-74
2023/10/16 18:20:19;;;;;;;6.70;4.93;;;;;;;7.48;100.00;102170.97;10428862;28;20086;-75
2023/10/16 18:25:19;;;;;;;5.75;3.75;;;;;;;7.42;100.00;102166.31;10433189;28;20041;-75
2023/10/16 18:30:20;;;;;;;6.90;4.38;;;;;;;7.35;100.00;102165.41;10430403;28;20120;-75
2023/10/16 18:35:22;;;;;;;6.78;4.53;;;;;;;7.12;100.00;102148.41;10426395;28;20045;-75
2023/10/16 18:40:23;;;;;;;9.13;4.72;;;;;;;7.15;100.00;102158.94;10431581;28;20473;-74
2023/10/16 18:45:24;;;;;;;8.05;4.30;;;;;;;7.04;100.00;102157.63;10417483;28;20029;-75
2023/10/16 18:50:25;;;;;;;7.40;4.72;;;;;;;6.94;100.00;102160.69;10420189;28;20109;-75
2023/10/16 18:55:29;;;;;;;9.00;4.95;;;;;;;6.82;100.00;102154.06;10420902;28;20049;-74
2023/10/16 19:00:29;;;;;;;11.52;5.43;;;;;;;6.77;100.00;102159.31;10421701;28;20068;-75
2023/10/16 19:05:32;;;;;;;9.77;6.32;;;;;;;6.79;100.00;102154.47;10430210;28;20052;-75
2023/10/16 19:10:32;;;;;;;11.07;6.68;;;;;;;6.84;100.00;102162.94;10430752;28;20049;-77
2023/10/16 19:15:33;;;;;;;9.07;5.97;;;;;;;6.93;100.00;102159.00;10428756;28;20041;-74
2023/10/16 19:20:33;;;;;;;13.75;4.78;;;;;;;7.04;100.00;102163.94;10429364;28;20083;-75
2023/10/16 19:25:35;;;;;;;8.20;3.47;;;;;;;7.13;100.00;102163.78;10431181;28;20029;-75
2023/10/16 19:30:35;;;;;;;8.65;3.55;;;;;;;7.24;100.00;102163.25;10426341;28;20033;-76
2023/10/16 19:35:36;;;;;;;7.60;2.83;;;;;;;7.29;100.00;102166.22;10432759;28;20044;-75
2023/10/16 19:40:37;;;;;;;8.20;2.80;;;;;;;7.32;100.00;102171.31;10422484;28;20073;-76
2023/10/16 19:45:38;;;;;;;12.20;5.03;;;;;;;7.36;100.00;102174.47;10422444;28;20072;-75
2023/10/16 19:50:38;;;;;;;12.95;6.00;;;;;;;7.46;100.00;102167.59;10416057;28;20037;-75
2023/10/16 19:55:39;;;;;;;9.43;6.43;;;;;;;7.58;100.00;102177.97;10426289;28;20044;-75
2023/10/16 20:00:42;;;;;;;15.65;6.85;;;;;;;7.62;100.00;102182.00;10426827;28;20041;-75
2023/10/16 20:05:43;;;;;;;11.65;5.07;;;;;;;7.66;100.00;102180.56;10423290;28;20036;-75
2023/10/16 20:10:43;;;;;;;9.10;5.13;;;;;;;7.52;100.00;102154.13;10430409;28;20041;-75
2023/10/16 20:15:44;;;;;;;11.38;5.38;;;;;;;7.72;100.00;102182.47;10423110;28;20045;-74
2023/10/16 20:20:47;;;;;;;10.82;5.63;;;;;;;7.72;100.00;102193.44;10431617;28;20041;-74
2023/10/16 20:25:50;;;;;;;11.30;4.75;;;;;;;7.74;100.00;102190.50;10435512;28;20101;-75
2023/10/16 20:30:52;;;;;;;8.32;3.65;;;;;;;7.75;100.00;102181.22;10420341;28;20040;-75
2023/10/16 20:35:52;;;;;;;12.02;5.50;;;;;;;7.77;100.00;102199.19;10425289;28;20092;-74
2023/10/16 20:40:53;;;;;;;6.63;3.88;;;;;;;7.76;100.00;102189.25;10432036;28;20041;-74
2023/10/16 20:45:53;;;;;;;10.40;4.10;;;;;;;7.75;100.00;102193.06;10431490;28;20041;-75
2023/10/16 20:50:54;;;;;;;8.20;4.43;;;;;;;7.67;100.00;102196.81;10432887;28;20672;-75
2023/10/16 20:55:55;;;;;;;8.43;3.10;;;;;;;7.59;100.00;102198.88;10436952;28;20040;-75
2023/10/16 21:00:55;;;;;;;12.43;2.63;;;;;;;7.50;100.00;102200.91;10430601;28;20042;-75
2023/10/16 21:05:56;;;;;;;5.65;2.90;;;;;;;7.40;100.00;102201.28;10434783;28;20037;-75
2023/10/16 21:10:58;;;;;;;5.97;3.03;;;;;;;7.28;100.00;102209.19;10426938;28;20034;-74
2023/10/16 21:15:58;;;;;;;7.00;4.05;;;;;;;7.19;100.00;102210.41;10422032;28;20034;-76
2023/10/16 21:20:58;;;;;;;11.80;4.97;;;;;;;7.15;100.00;102202.78;10428986;28;20053;-77
2023/10/16 21:25:59;;;;;;;8.63;4.13;;;;;;;7.11;100.00;102202.34;10427036;28;20038;-74
2023/10/16 21:30:59;;;;;;;9.75;4.80;;;;;;;7.14;100.00;102206.56;10430494;28;20045;-75
2023/10/16 21:36:04;;;;;;;7.75;3.72;;;;;;;7.13;100.00;102204.84;10429908;28;20063;-75
2023/10/16 21:41:04;;;;;;;7.97;4.35;;;;;;;7.12;100.00;102206.75;10432383;28;20041;-74
2023/10/16 21:46:05;;;;;;;8.73;5.00;;;;;;;7.07;100.00;102201.88;10420967;28;20033;-76
2023/10/16 21:51:05;;;;;;;6.80;4.22;;;;;;;7.01;100.00;102201.84;10423292;28;20046;-75
2023/10/16 21:56:06;;;;;;;6.75;3.85;;;;;;;6.93;100.00;102202.81;10421830;28;20045;-75
2023/10/16 22:01:07;;;;;;;8.55;4.25;;;;;;;6.87;100.00;102209.09;10433372;28;20038;-75
2023/10/16 22:06:08;;;;;;;15.27;5.13;;;;;;;6.87;100.00;102206.34;10427461;28;20029;-74
2023/10/16 22:11:12;;;;;;;9.63;4.20;;;;;;;6.86;100.00;102201.91;10432713;28;20409;-75
2023/10/16 22:16:13;;;;;;;10.35;4.57;;;;;;;6.85;100.00;102205.69;10429149;28;20435;-75
2023/10/16 22:21:13;;;;;;;10.93;4.28;;;;;;;6.85;100.00;102203.78;10425948;28;20052;-75
2023/10/16 22:26:17;;;;;;;12.52;5.28;;;;;;;6.91;100.00;102196.69;10430841;28;20049;-75
2023/10/16 22:31:18;;;;;;;14.45;5.40;;;;;;;6.91;100.00;102196.69;10427339;28;20045;-74
2023/10/16 22:36:20;;;;;;;9.15;4.57;;;;;;;6.87;100.00;102184.44;10434876;28;20034;-74
2023/10/16 22:41:21;;;;;;;7.88;4.93;;;;;;;6.78;100.00;102188.34;10425699;28;20113;-75
2023/10/16 22:46:21;;;;;;;10.18;4.85;;;;;;;6.71;100.00;102192.94;10429862;28;20115;-74
2023/10/16 22:51:22;;;;;;;9.38;4.40;;;;;;;6.62;100.00;102198.53;10425540;28;20056;-74
2023/10/16 22:56:22;;;;;;;13.52;4.97;;;;;;;6.56;100.00;102182.91;10426411;28;20041;-74
2023/10/16 23:01:23;;;;;;;11.82;5.20;;;;;;;6.47;100.00;102189.56;10430071;28;20049;-75
2023/10/16 23:06:23;;;;;;;8.32;5.00;;;;;;;6.33;100.00;102182.25;10423875;28;20048;-75
2023/10/16 23:11:24;;;;;;;10.68;5.05;;;;;;;5.95;100.00;102131.34;10415951;28;20045;-75
2023/10/16 23:16:27;;;;;;;12.77;5.47;;;;;;;6.29;100.00;102202.81;10414356;28;20037;-75
2023/10/16 23:21:28;;;;;;;8.73;5.60;;;;;;;6.23;100.00;102202.53;10414559;28;20075;-75
2023/10/16 23:26:29;;;;;;;10.60;5.07;;;;;;;6.22;100.00;102198.13;10417030;28;20482;-75
2023/10/16 23:31:32;;;;;;;8.43;4.38;;;;;;;6.20;100.00;102205.69;10416914;28;20040;-74
2023/10/16 23:36:37;;;;;;;9.48;5.50;;;;;;;6.15;100.00;102202.66;10416460;28;20041;-74
2023/10/16 23:41:40;;;;;;;9.73;5.05;;;;;;;6.07;100.00;102194.56;10415683;28;20038;-74
2023/10/16 23:46:42;;;;;;;10.90;6.20;;;;;;;5.91;100.00;102186.56;10414353;28;20037;-75
2023/10/16 23:51:43;;;;;;;10.82;5.03;;;;;;;5.95;100.00;102188.72;10424134;28;20383;-75
2023/10/16 23:56:50;;;;;;;14.50;5.28;;;;;;;5.86;100.00;102184.41;10430812;28;20124;-74
